Time;durP1;ratioP1;P1;durP2;ratioP2;P2;SDS_P1;SDS_P2;PMS_P1;PMS_P2;Temp;Humidity;BMP_temperature;BMP_pressure;BME280_temperature;BME280_humidity;BME280_pressure;Samples;Min_cycle;Max_cycle;Signal;HPM_P1;HPM_P2
2022/09/30 00:01:00;;;;;;;12.05;5.47;;;;;;;;;;5053741;28;20925;-72
2022/09/30 00:03:27;;;;;;;6.93;5.32;;;;;;;;;;5065186;28;20419;-72
2022/09/30 00:06:01;;;;;;;6.40;5.47;;;8.90;99.90;;;;;;5056373;28;20423;-72
2022/09/30 00:08:28;;;;;;;8.00;6.05;;;;;;;;;;5066286;28;20422;-72
2022/09/30 00:11:15;;;;;;;9.45;6.70;;;8.40;99.90;;;;;;5063791;28;20754;-72
2022/09/30 00:13:41;;;;;;;8.37;6.97;;;;;;;;;;5065721;28;20422;-72
2022/09/30 00:16:08;;;;;;;11.07;7.35;;;;;;;;;;5056605;28;20448;-72
2022/09/30 00:18:35;;;;;;;9.00;7.40;;;;;;;;;;5056416;28;20494;-73
2022/09/30 00:21:01;;;;;;;10.70;7.70;;;;;;;;;;5063108;28;20453;-72
2022/09/30 00:23:28;;;;;;;10.55;8.68;;;;;;;;;;5042707;28;20455;-72
2022/09/30 00:25:58;;;;;;;9.93;8.03;;;;;;;;;;5041154;28;20420;-72
2022/09/30 00:28:24;;;;;;;10.52;7.13;;;;;;;;;;5072621;28;20439;-73
2022/09/30 00:30:50;;;;;;;9.93;7.05;;;;;;;;;;5039356;28;20436;-73
2022/09/30 00:33:16;;;;;;;8.90;6.68;;;;;;;;;;5055314;28;20747;-72
2022/09/30 00:35:42;;;;;;;9.07;6.43;;;;;;;;;;5041624;28;20425;-72
2022/09/30 00:38:08;;;;;;;7.90;6.60;;;;;;;;;;5074576;28;20425;-72
2022/09/30 00:40:37;;;;;;;8.18;6.32;;;;;;;;;;5032632;28;20851;-73
2022/09/30 00:43:03;;;;;;;9.00;7.00;;;;;;;;;;5055300;28;20424;-72
2022/09/30 00:45:31;;;;;;;10.75;7.60;;;;;;;;;;5039092;28;20767;-72
2022/09/30 00:48:08;;;;;;;12.18;8.20;;;8.60;99.90;;;;;;5050818;28;20506;-72
2022/09/30 00:50:45;;;;;;;11.70;8.93;;;;;;;;;;5051094;28;20425;-72
2022/09/30 00:53:17;;;;;;;10.23;8.07;;;;;;;;;;5038838;28;20431;-72
2022/09/30 00:55:49;;;;;;;9.00;7.10;;;;;;;;;;5055332;28;20510;-72
2022/09/30 00:58:19;;;;;;;10.13;7.72;;;;;;;;;;5038663;28;20408;-72
2022/09/30 01:00:46;;;;;;;8.30;6.90;;;;;;;;;;5063957;28;20476;-73
2022/09/30 01:03:12;;;;;;;8.63;7.03;;;;;;;;;;5054324;28;20462;-72
2022/09/30 01:05:38;;;;;;;9.45;6.53;;;;;;;;;;5054809;28;20415;-72
2022/09/30 01:08:07;;;;;;;9.17;6.93;;;7.90;99.90;;;;;;5054931;28;20967;-72
2022/09/30 01:10:33;;;;;;;8.75;6.45;;;;;;;;;;5056363;28;20841;-72
2022/09/30 01:12:59;;;;;;;8.85;6.60;;;;;;;;;;5055302;28;20435;-72
2022/09/30 01:15:43;;;;;;;8.05;6.03;;;8.30;99.90;;;;;;5055791;28;20432;-72
2022/09/30 01:18:38;;;;;;;56.20;9.32;;;;;;;;;;5051192;28;20419;-72
2022/09/30 01:21:08;;;;;;;29.88;8.80;;;;;;;;;;5042596;28;20426;-72
2022/09/30 01:23:43;;;;;;;10.30;7.65;;;;;;;;;;5055289;28;20416;-72
2022/09/30 01:26:31;;;;;;;8.43;6.50;;;;;;;;;;5060609;28;20424;-73
2022/09/30 01:29:06;;;;;;;8.95;6.35;;;;;;;;;;5071493;28;20455;-71
2022/09/30 01:31:32;;;;;;;8.75;6.05;;;;;;;;;;5057588;28;20978;-72
2022/09/30 01:34:10;;;;;;;8.00;6.18;;;;;;;;;;5055019;28;20895;-72
2022/09/30 01:37:12;;;;;;;8.37;5.53;;;7.40;99.90;;;;;;5038394;28;20853;-72
2022/09/30 01:39:45;;;;;;;10.43;5.88;;;;;;;;;;5068805;28;20435;-72
2022/09/30 01:42:11;;;;;;;8.40;6.05;;;;;;;;;;5054663;28;20430;-72
2022/09/30 01:44:50;;;;;;;8.77;6.30;;;7.90;99.90;;;;;;5037618;28;20955;-71
2022/09/30 01:47:25;;;;;;;12.20;6.95;;;7.90;99.90;;;;;;5058407;28;20490;-71
2022/09/30 01:49:57;;;;;;;11.00;7.13;;;;;;;;;;5054811;28;20419;-71
2022/09/30 01:52:35;;;;;;;9.32;7.05;;;;;;;;;;5072884;28;20450;-72
2022/09/30 01:55:08;;;;;;;9.50;6.80;;;;;;;;;;5067438;28;20579;-72
2022/09/30 01:57:49;;;;;;;7.63;6.40;;;7.80;99.90;;;;;;5054613;28;20808;-73
2022/09/30 02:00:15;;;;;;;8.98;6.70;;;;;;;;;;5058820;28;20409;-73
2022/09/30 02:03:15;;;;;;;8.70;6.78;;;7.30;99.90;;;;;;5021460;28;20395;-73
2022/09/30 02:06:09;;;;;;;8.52;6.60;;;7.00;99.90;;;;;;5055821;28;20427;-72
2022/09/30 02:08:41;;;;;;;8.20;6.20;;;;;;;;;;5067987;28;20422;-72
2022/09/30 02:11:10;;;;;;;7.60;6.40;;;;;;;;;;5073496;28;20429;-72
2022/09/30 02:13:55;;;;;;;7.00;6.00;;;;;;;;;;5071282;28;20449;-72
2022/09/30 02:16:48;;;;;;;9.52;6.88;;;6.90;99.90;;;;;;5074428;28;20433;-72
2022/09/30 02:19:14;;;;;;;8.30;6.47;;;;;;;;;;5058922;28;20428;-73
2022/09/30 02:21:43;;;;;;;7.20;6.00;;;;;;;;;;5060761;28;20437;-80
2022/09/30 02:24:11;;;;;;;9.17;6.00;;;;;;;;;;5073134;28;20804;-80
2022/09/30 02:26:38;;;;;;;8.98;6.40;;;;;;;;;;5073052;28;20475;-80
2022/09/30 02:29:15;;;;;;;9.82;7.25;;;;;;;;;;5046767;28;20978;-79
2022/09/30 02:31:43;;;;;;;9.30;6.60;;;7.10;99.90;;;;;;5042648;28;20521;-79
2022/09/30 02:34:15;;;;;;;8.63;6.57;;;;;;;;;;5047485;28;20416;-80
2022/09/30 02:36:49;;;;;;;8.20;5.80;;;7.00;99.90;;;;;;5053309;28;20942;-80
2022/09/30 02:39:20;;;;;;;14.88;6.45;;;;;;;;;;5037419;28;20439;-80
2022/09/30 02:41:48;;;;;;;11.60;6.38;;;;;;;;;;5061640;28;20988;-80
2022/09/30 02:44:15;;;;;;;10.40;6.15;;;;;;;;;;5053341;28;20528;-79
2022/09/30 02:46:54;;;;;;;10.97;6.30;;;;;;;;;;5053941;28;20866;-79
2022/09/30 02:49:20;;;;;;;24.88;7.10;;;;;;;;;;5052626;28;20412;-79
2022/09/30 02:51:49;;;;;;;55.60;8.60;;;;;;;;;;5066231;28;20910;-79
2022/09/30 02:54:30;;;;;;;68.95;11.35;;;;;;;;;;5060147;28;20766;-79
2022/09/30 02:56:56;;;;;;;124.72;11.10;;;;;;;;;;5073669;28;20405;-79
2022/09/30 02:59:23;;;;;;;85.78;10.50;;;;;;;;;;5062600;28;20455;-78
2022/09/30 03:01:49;;;;;;;68.30;10.30;;;;;;;;;;5055157;28;20481;-79
2022/09/30 03:04:22;;;;;;;58.72;10.30;;;7.30;99.90;;;;;;5061259;28;20420;-78
2022/09/30 03:06:48;;;;;;;27.23;8.30;;;;;;;;;;5073782;28;20402;-79
2022/09/30 03:09:14;;;;;;;18.63;9.05;;;;;;;;;;5063222;28;20420;-72
2022/09/30 03:11:41;;;;;;;9.55;7.50;;;;;;;;;;5036319;28;20418;-72
2022/09/30 03:14:35;;;;;;;7.85;6.85;;;6.80;99.90;;;;;;5041823;28;20414;-72
2022/09/30 03:17:08;;;;;;;10.43;7.38;;;;;;;;;;5071925;28;20418;-72
2022/09/30 03:19:34;;;;;;;8.57;7.10;;;;;;;;;;5046708;28;20427;-72
2022/09/30 03:22:18;;;;;;;9.17;6.80;;;;;;;;;;5073057;28;20501;-71
2022/09/30 03:25:03;;;;;;;9.75;6.57;;;;;;;;;;5056609;28;20525;-72
2022/09/30 03:27:30;;;;;;;7.65;6.72;;;;;;;;;;5052535;28;20415;-72
2022/09/30 03:30:02;;;;;;;8.52;7.05;;;;;;;;;;5036452;28;20442;-72
2022/09/30 03:32:47;;;;;;;9.10;7.75;;;;;;;;;;5040113;28;20399;-72
2022/09/30 03:35:21;;;;;;;10.68;8.27;;;;;;;;;;5057302;28;20802;-72
2022/09/30 03:38:00;;;;;;;8.40;7.10;;;;;;;;;;5070103;28;20465;-72
2022/09/30 03:40:26;;;;;;;8.50;6.95;;;;;;;;;;5042459;28;20773;-72
2022/09/30 03:42:56;;;;;;;10.20;7.10;;;6.60;99.90;;;;;;5060575;28;20397;-72
2022/09/30 03:45:32;;;;;;;9.95;7.75;;;;;;;;;;5060418;28;20481;-71
2022/09/30 03:48:01;;;;;;;8.57;7.27;;;;;;;;;;5052160;28;20743;-72
2022/09/30 03:50:27;;;;;;;7.97;7.13;;;;;;;;;;5042820;28;20421;-72
2022/09/30 03:52:54;;;;;;;9.43;7.55;;;;;;;;;;5076968;28;20826;-72
2022/09/30 03:55:22;;;;;;;9.97;7.47;;;6.50;99.90;;;;;;5077254;28;20886;-72
2022/09/30 03:57:48;;;;;;;8.30;7.32;;;;;;;;;;5075446;28;20413;-73
2022/09/30 04:00:15;;;;;;;8.27;6.95;;;;;;;;;;5074710;28;20418;-72
2022/09/30 04:02:41;;;;;;;8.55;7.38;;;;;;;;;;5060845;28;20447;-72
2022/09/30 04:05:07;;;;;;;9.38;7.03;;;;;;;;;;5064392;28;20808;-71
2022/09/30 04:07:34;;;;;;;9.80;6.80;;;;;;;;;;5073513;28;20414;-72
2022/09/30 04:10:00;;;;;;;8.73;7.40;;;;;;;;;;5058011;28;20434;-72
2022/09/30 04:12:26;;;;;;;7.93;6.75;;;;;;;;;;5058277;28;20453;-72
2022/09/30 04:14:52;;;;;;;10.50;7.15;;;;;;;;;;5056915;28;20463;-72
2022/09/30 04:17:18;;;;;;;8.48;6.80;;;;;;;;;;5068788;28;20444;-72
2022/09/30 04:19:44;;;;;;;8.10;6.22;;;;;;;;;;5071277;28;20423;-71
2022/09/30 04:22:10;;;;;;;10.68;8.00;;;;;;;;;;5059753;28;20803;-78
2022/09/30 04:24:38;;;;;;;11.85;9.07;;;;;;;;;;5039790;28;20899;-78
2022/09/30 04:27:04;;;;;;;11.07;8.95;;;;;;;;;;5073126;28;20767;-78
2022/09/30 04:29:30;;;;;;;15.13;9.63;;;;;;;;;;5065198;28;20427;-79
2022/09/30 04:31:56;;;;;;;13.07;9.02;;;;;;;;;;5076092;28;20490;-78
2022/09/30 04:34:22;;;;;;;10.85;8.00;;;;;;;;;;5068090;28;20435;-79
2022/09/30 04:36:48;;;;;;;11.90;8.23;;;;;;;;;;5039641;28;20400;-79
2022/09/30 04:39:14;;;;;;;11.13;7.67;;;;;;;;;;5059288;28;20766;-72
2022/09/30 04:41:42;;;;;;;11.85;8.63;;;;;;;;;;5073537;28;20425;-73
2022/09/30 04:44:08;;;;;;;10.13;7.88;;;;;;;;;;5071187;28;20425;-72
2022/09/30 04:46:35;;;;;;;10.13;7.57;;;6.20;99.90;;;;;;5059722;28;20477;-73
2022/09/30 04:49:03;;;;;;;9.63;7.73;;;6.30;99.90;;;;;;5061147;28;20428;-73
2022/09/30 04:51:29;;;;;;;11.85;8.15;;;;;;;;;;5066718;28;20425;-73
2022/09/30 04:53:55;;;;;;;12.65;9.15;;;;;;;;;;5076427;28;20750;-72
2022/09/30 04:56:23;;;;;;;13.47;9.47;;;;;;;;;;5070969;28;20426;-72
2022/09/30 04:58:49;;;;;;;15.27;9.60;;;;;;;;;;5075334;28;20777;-72
2022/09/30 05:01:16;;;;;;;13.45;9.35;;;;;;;;;;5074983;28;20457;-73
2022/09/30 05:03:43;;;;;;;11.80;9.20;;;;;;;;;;5091488;28;20439;-73
2022/09/30 05:06:10;;;;;;;14.05;9.90;;;5.70;99.90;;;;;;5065015;28;20424;-73
2022/09/30 05:08:36;;;;;;;11.43;9.27;;;;;;;;;;5056247;28;20703;-73
2022/09/30 05:11:03;;;;;;;11.77;8.50;;;;;;;;;;5060737;28;20447;-72
2022/09/30 05:13:31;;;;;;;14.00;10.65;;;;;;;;;;5055195;28;20427;-74
2022/09/30 05:15:57;;;;;;;14.30;10.00;;;;;;;;;;5066127;28;20418;-73
2022/09/30 05:18:26;;;;;;;13.77;9.68;;;;;;;;;;5065465;28;20814;-73
2022/09/30 05:20:53;;;;;;;14.07;9.40;;;;;;;;;;5055922;28;20432;-73
2022/09/30 05:23:20;;;;;;;15.20;11.02;;;;;;;;;;5060224;28;20403;-73
2022/09/30 05:25:47;;;;;;;14.25;11.00;;;;;;;;;;5065658;28;20424;-73
2022/09/30 05:28:13;;;;;;;15.50;11.20;;;;;;;;;;5055591;28;20431;-73
2022/09/30 05:30:43;;;;;;;14.57;9.90;;;;;;;;;;5066748;28;20429;-73
2022/09/30 05:33:09;;;;;;;12.60;10.27;;;;;;;;;;5074394;28;20490;-73
2022/09/30 05:35:36;;;;;;;18.33;13.52;;;;;;;;;;5054443;28;20433;-73
2022/09/30 05:38:03;;;;;;;16.13;11.15;;;;;;;;;;5069262;28;20978;-73
2022/09/30 05:40:30;;;;;;;14.05;10.30;;;5.80;99.90;;;;;;5040162;28;20488;-73
2022/09/30 05:42:57;;;;;;;15.70;11.20;;;6.10;99.90;;;;;;5060184;28;20486;-73
2022/09/30 05:45:24;;;;;;;16.58;11.15;;;5.80;99.90;;;;;;5069607;28;20555;-73
2022/09/30 05:47:54;;;;;;;15.35;11.95;;;5.80;99.90;;;;;;5055438;28;20758;-73
2022/09/30 05:50:22;;;;;;;13.90;11.00;;;5.80;99.90;;;;;;5039616;28;20468;-73
2022/09/30 05:52:48;;;;;;;16.23;11.75;;;;;;;;;;5056386;28;20422;-73
2022/09/30 05:55:15;;;;;;;16.38;11.25;;;;;;;;;;5061879;28;20547;-73
2022/09/30 05:57:42;;;;;;;15.23;10.90;;;;;;;;;;5072944;28;20453;-73
2022/09/30 06:00:08;;;;;;;16.27;11.07;;;5.90;99.90;;;;;;5021949;28;20503;-73
2022/09/30 06:02:37;;;;;;;15.63;11.02;;;;;;;;;;5043056;28;20414;-73
2022/09/30 06:05:06;;;;;;;14.65;11.90;;;;;;;;;;5072497;28;20429;-73
2022/09/30 06:07:33;;;;;;;14.68;11.40;;;;;;;;;;5050962;28;20510;-73
2022/09/30 06:09:59;;;;;;;14.70;12.45;;;;;;;;;;5071596;28;20426;-74
2022/09/30 06:12:27;;;;;;;18.70;13.40;;;;;;;;;;5069150;28;20423;-74
2022/09/30 06:14:54;;;;;;;18.52;14.50;;;;;;;;;;5039558;28;20503;-73
2022/09/30 06:17:25;;;;;;;20.60;14.30;;;;;;;;;;5115631;27;1975894;-73
2022/09/30 06:19:51;;;;;;;19.10;14.00;;;;;;;;;;5143328;27;20428;-72
2022/09/30 06:22:17;;;;;;;16.45;12.90;;;;;;;;;;5137768;27;21268;-72
2022/09/30 06:24:44;;;;;;;15.73;12.23;;;;;;;;;;5146147;27;20523;-73
2022/09/30 06:27:10;;;;;;;14.80;11.80;;;;;;;;;;5121358;27;20409;-73
2022/09/30 06:29:37;;;;;;;14.88;10.95;;;;;;;;;;5131574;27;20410;-74
2022/09/30 06:32:03;;;;;;;14.65;10.70;;;;;;;;;;5115822;27;20420;-80
2022/09/30 06:34:29;;;;;;;14.13;10.40;;;;;;;;;;5140347;27;20420;-80
2022/09/30 06:36:55;;;;;;;13.67;9.83;;;;;;;;;;5131976;27;20719;-80
2022/09/30 06:39:21;;;;;;;13.88;10.13;;;;;;;;;;5131522;27;20420;-80
2022/09/30 06:41:48;;;;;;;14.18;9.82;;;;;;;;;;5124573;27;21015;-80
2022/09/30 06:44:14;;;;;;;14.68;10.75;;;;;;;;;;5144232;27;21905;-80
2022/09/30 06:46:40;;;;;;;16.05;11.57;;;;;;;;;;5122970;27;20422;-80
2022/09/30 06:49:06;;;;;;;14.77;11.03;;;;;;;;;;5132175;27;20467;-80
2022/09/30 06:51:32;;;;;;;14.70;10.95;;;;;;;;;;5145742;27;20546;-80
2022/09/30 06:53:59;;;;;;;16.00;11.98;;;7.90;99.90;;;;;;5123160;27;20490;-80
2022/09/30 06:56:25;;;;;;;14.15;11.00;;;;;;;;;;5141369;27;20915;-80
2022/09/30 06:58:52;;;;;;;14.32;11.55;;;;;;;;;;5145470;27;20448;-79
2022/09/30 07:01:19;;;;;;;12.55;10.05;;;;;;;;;;5141109;27;20922;-79
2022/09/30 07:03:46;;;;;;;15.57;9.67;;;;;;;;;;5151022;27;20487;-80
2022/09/30 07:06:14;;;;;;;24.83;11.20;;;7.60;99.90;;;;;;5151335;27;20417;-80
2022/09/30 07:08:40;;;;;;;29.98;11.88;;;;;;;;;;5133847;27;20961;-79
2022/09/30 07:11:11;;;;;;;23.05;11.85;;;;;;;;;;5151325;27;20418;-80
2022/09/30 07:13:38;;;;;;;30.53;12.57;;;;;;;;;;5135183;27;20455;-80
2022/09/30 07:16:05;;;;;;;20.67;13.45;;;;;;;;;;5145833;27;20484;-80
2022/09/30 07:18:31;;;;;;;18.77;13.18;;;;;;;;;;5149842;27;20404;-79
2022/09/30 07:20:57;;;;;;;19.60;13.47;;;;;;;;;;5131245;27;20390;-78
2022/09/30 07:23:27;;;;;;;21.63;13.45;;;;;;;;;;5134143;27;20882;-79
2022/09/30 07:25:56;;;;;;;35.53;13.70;;;7.80;99.90;;;;;;5146116;27;20417;-78
2022/09/30 07:28:26;;;;;;;81.60;17.75;;;;;;;;;;5113124;27;20838;-78
2022/09/30 07:30:55;;;;;;;92.13;18.27;;;;;;;;;;5110267;27;20531;-78
2022/09/30 07:33:22;;;;;;;139.55;21.20;;;;;;;;;;5135982;27;20405;-79
2022/09/30 07:35:52;;;;;;;59.67;20.15;;;8.00;99.90;;;;;;5132708;27;20495;-79
2022/09/30 07:38:20;;;;;;;36.78;18.27;;;;;;;;;;5115547;27;20422;-78
2022/09/30 07:41:03;;;;;;;87.60;19.97;;;;;;;;;;5135061;27;20495;-80
2022/09/30 07:43:39;;;;;;;67.10;20.30;;;;;;;;;;5137746;27;20468;-78
2022/09/30 07:46:10;;;;;;;104.82;21.50;;;;;;;;;;5130134;27;20420;-79
2022/09/30 07:51:02;;;;;;;53.75;19.55;;;8.70;99.90;;;;;;5122655;27;20451;-78
2022/09/30 07:53:29;;;;;;;69.47;20.43;;;;;;;;;;5124137;27;20413;-77
2022/09/30 07:55:55;;;;;;;153.15;25.05;;;;;;;;;;5126092;27;20446;-77
2022/09/30 07:58:21;;;;;;;132.35;25.13;;;;;;;;;;5099521;27;20405;-77
2022/09/30 08:00:50;;;;;;;247.80;30.53;;;8.80;99.90;;;;;;5128864;27;20470;-78
2022/09/30 08:03:16;;;;;;;188.32;30.98;;;;;;;;;;5115504;27;20422;-77
2022/09/30 08:05:47;;;;;;;193.38;31.80;;;;;;;;;;5118962;27;20401;-80
2022/09/30 08:08:15;;;;;;;201.37;31.93;;;9.00;99.90;;;;;;5124878;27;20463;-77
2022/09/30 08:10:41;;;;;;;275.63;36.57;;;;;;;;;;5110888;27;20586;-77
2022/09/30 08:13:07;;;;;;;294.23;36.60;;;;;;;;;;5115816;27;20917;-77
2022/09/30 08:15:33;;;;;;;266.63;35.57;;;;;;;;;;5099012;27;20479;-77
2022/09/30 08:18:03;;;;;;;131.35;28.42;;;;;;;;;;5099707;27;20497;-78
2022/09/30 08:20:30;;;;;;;206.88;36.55;;;;;;;;;;5127774;27;20403;-78
2022/09/30 08:22:57;;;;;;;129.75;32.60;;;;;;;;;;5119791;27;20451;-78
2022/09/30 08:25:23;;;;;;;197.07;35.20;;;;;;;;;;5115287;27;20422;-78
2022/09/30 08:27:49;;;;;;;239.70;36.45;;;;;;;;;;5131971;27;20455;-77
2022/09/30 08:30:16;;;;;;;212.30;36.53;;;;;;;;;;5122231;27;20426;-77
2022/09/30 08:32:42;;;;;;;138.85;32.10;;;;;;;;;;5090992;27;20505;-78
2022/09/30 08:35:08;;;;;;;167.15;35.95;;;;;;;;;;5102964;27;20402;-78
2022/09/30 08:37:34;;;;;;;149.43;30.67;;;;;;;;;;5111738;27;20418;-78
2022/09/30 08:40:01;;;;;;;140.15;29.80;;;;;;;;;;5112504;27;20500;-77
2022/09/30 08:42:27;;;;;;;172.55;31.85;;;;;;;;;;5129126;27;20745;-78
2022/09/30 08:44:53;;;;;;;74.20;25.83;;;;;;;;;;5134215;27;20422;-78
2022/09/30 08:47:58;;;;;;;117.88;27.83;;;;;;;;;;5134792;27;20417;-77
2022/09/30 08:50:35;;;;;;;79.60;27.58;;;;;;;;;;5052176;28;20503;-78
2022/09/30 08:53:03;;;;;;;80.28;26.38;;;;;;;;;;5044651;28;20945;-76
2022/09/30 08:55:33;;;;;;;47.80;24.52;;;;;;;;;;5082617;27;20424;-77
2022/09/30 08:58:01;;;;;;;78.28;28.98;;;;;;;;;;5130045;27;20613;-78
2022/09/30 09:00:27;;;;;;;57.17;25.35;;;;;;;;;;5102121;27;20507;-78
2022/09/30 09:02:57;;;;;;;68.87;26.53;;;11.20;99.90;;;;;;5123899;27;20446;-77
2022/09/30 09:05:38;;;;;;;47.10;23.50;;;;;;;;;;5101660;27;20429;-80
2022/09/30 09:08:04;;;;;;;41.40;23.35;;;;;;;;;;5132621;27;20412;-77
2022/09/30 09:10:49;;;;;;;48.30;22.90;;;;;;;;;;5135389;27;20405;-77
2022/09/30 09:13:27;;;;;;;34.13;23.10;;;;;;;;;;5135153;27;20416;-77
2022/09/30 09:16:06;;;;;;;29.67;21.27;;;;;;;;;;5130747;27;20424;-77
2022/09/30 09:18:53;;;;;;;26.73;20.42;;;12.30;99.90;;;;;;5127517;27;20420;-77
2022/09/30 09:21:21;;;;;;;22.52;18.13;;;;;;;;;;5136508;27;20420;-78
2022/09/30 09:23:49;;;;;;;24.13;18.83;;;12.50;99.90;;;;;;5112650;27;20405;-77
2022/09/30 09:26:16;;;;;;;21.60;17.13;;;;;;;;;;5108418;27;21076;-77
2022/09/30 09:29:19;;;;;;;19.15;16.10;;;13.00;99.90;;;;;;5125248;27;20929;-77
2022/09/30 09:31:47;;;;;;;17.80;14.27;;;;;;;;;;5134195;27;20448;-77
2022/09/30 09:34:14;;;;;;;16.67;14.45;;;;;;;;;;5133378;27;20421;-77
2022/09/30 09:36:57;;;;;;;16.40;13.60;;;;;;;;;;5127471;27;20414;-77
2022/09/30 09:39:38;;;;;;;15.90;13.05;;;13.60;99.90;;;;;;5106046;27;20406;-77
2022/09/30 09:42:15;;;;;;;15.25;13.13;;;13.80;99.90;;;;;;5113901;27;20406;-77
2022/09/30 09:44:47;;;;;;;13.48;11.32;;;;;;;;;;5139666;27;20442;-78
2022/09/30 09:47:14;;;;;;;14.07;10.68;;;;;;;;;;5131264;27;20422;-77
2022/09/30 09:49:52;;;;;;;11.88;10.20;;;;;;;;;;5130164;27;20430;-77
2022/09/30 09:52:25;;;;;;;12.95;9.20;;;;;;;;;;5110229;27;20496;-77
2022/09/30 09:54:55;;;;;;;12.65;9.30;;;;;;;;;;5148902;27;20417;-77
2022/09/30 09:57:30;;;;;;;10.43;9.02;;;14.60;99.90;;;;;;5139033;27;20427;-78
2022/09/30 10:03:19;;;;;;;10.33;7.97;;;14.80;99.90;;;;;;5127065;27;20421;-76
2022/09/30 10:05:46;;;;;;;9.23;7.70;;;;;;;;;;5133726;27;20454;-76
2022/09/30 10:08:20;;;;;;;8.35;6.53;;;15.10;99.90;;;;;;5134578;27;21738;-76
2022/09/30 10:10:48;;;;;;;8.07;6.83;;;;;;;;;;5124160;27;20936;-78
2022/09/30 10:13:32;;;;;;;8.50;5.50;;;15.40;99.90;;;;;;5122003;27;20479;-78
2022/09/30 10:16:00;;;;;;;6.55;5.40;;;15.60;99.90;;;;;;5141269;27;20421;-77
2022/09/30 10:18:28;;;;;;;7.45;4.90;;;;;;;;;;5151287;27;20412;-77
2022/09/30 10:20:56;;;;;;;5.57;4.77;;;;;;;;;;5144196;27;20407;-77
2022/09/30 10:23:31;;;;;;;6.40;5.28;;;15.40;99.90;;;;;;5153125;27;20710;-78
2022/09/30 10:26:16;;;;;;;6.43;5.20;;;;;;;;;;5110863;27;20417;-77
2022/09/30 10:28:58;;;;;;;6.80;4.88;;;15.70;99.90;;;;;;5115154;27;20705;-78
2022/09/30 10:31:27;;;;;;;6.40;4.87;;;;;;;;;;5153180;27;20450;-77
2022/09/30 10:33:59;;;;;;;6.27;4.50;;;16.00;99.90;;;;;;5132913;27;20504;-77
2022/09/30 10:36:31;;;;;;;5.65;4.40;;;15.90;99.90;;;;;;5127075;27;20412;-77
2022/09/30 10:39:00;;;;;;;6.38;4.63;;;;;;;;;;5127462;27;20792;-75
2022/09/30 10:41:31;;;;;;;6.20;4.78;;;15.90;99.90;;;;;;5133228;27;20416;-75
2022/09/30 10:44:01;;;;;;;5.95;4.75;;;16.10;99.90;;;;;;5114496;27;20413;-76
2022/09/30 10:46:39;;;;;;;6.72;4.93;;;16.10;99.90;;;;;;5129710;27;20418;-77
2022/09/30 10:49:10;;;;;;;5.78;4.38;;;;;;;;;;5105087;28;20917;-75
2022/09/30 10:51:37;;;;;;;5.80;4.18;;;;;;;;;;5123767;27;20421;-75
2022/09/30 10:54:05;;;;;;;6.27;4.33;;;16.60;99.90;;;;;;5107936;28;20453;-76
2022/09/30 10:56:39;;;;;;;5.80;4.43;;;16.10;99.90;;;;;;5114473;28;20454;-75
2022/09/30 10:59:15;;;;;;;6.05;3.80;;;;;;;;;;5114290;28;20435;-76
2022/09/30 11:01:46;;;;;;;5.18;3.70;;;;;;;;;;5124771;27;20415;-76
2022/09/30 11:04:23;;;;;;;11.05;3.70;;;;;;;;;;5107143;27;20477;-79
2022/09/30 11:06:51;;;;;;;4.13;2.80;;;;;;;;;;5121943;27;20408;-77
2022/09/30 11:09:20;;;;;;;4.18;2.80;;;;;;;;;;5129616;27;20417;-78
2022/09/30 11:11:52;;;;;;;4.82;2.85;;;;;;;;;;5136778;27;20768;-78
2022/09/30 11:14:24;;;;;;;4.60;3.00;;;;;;;;;;5135588;27;20717;-79
2022/09/30 11:17:09;;;;;;;5.95;3.42;;;;;;;;;;5117209;27;20445;-75
2022/09/30 11:19:38;;;;;;;4.10;3.13;;;;;;;;;;5136115;27;20428;-77
2022/09/30 11:22:16;;;;;;;6.30;3.45;;;;;;;;;;5136796;27;20513;-76
2022/09/30 11:24:47;;;;;;;4.35;3.30;;;;;;;;;;5108975;27;20428;-77
2022/09/30 11:27:22;;;;;;;5.93;3.60;;;16.90;99.90;;;;;;5120705;27;20969;-79
2022/09/30 11:30:19;;;;;;;4.40;3.00;;;16.90;99.90;;;;;;5101393;27;20498;-78
2022/09/30 11:33:05;;;;;;;4.07;2.47;;;;;;;;;;5120773;27;20386;-78
2022/09/30 11:35:46;;;;;;;4.30;2.78;;;17.00;99.90;;;;;;5118311;27;20428;-78
2022/09/30 11:38:12;;;;;;;4.43;2.80;;;;;;;;;;5140253;27;20495;-79
2022/09/30 11:41:11;;;;;;;9.75;2.63;;;16.80;99.90;;;;;;5117974;27;20436;-78
2022/09/30 11:43:40;;;;;;;3.65;2.33;;;16.90;99.90;;;;;;5123684;27;20420;-79
2022/09/30 11:46:18;;;;;;;2.75;1.77;;;;;;;;;;5151011;27;20826;-81
2022/09/30 11:49:14;;;;;;;3.22;1.85;;;17.10;99.90;;;;;;5132258;27;20804;-79
2022/09/30 11:52:01;;;;;;;3.22;1.85;;;17.20;99.90;;;;;;5106779;27;20505;-77
2022/09/30 11:54:47;;;;;;;3.80;1.83;;;17.10;99.90;;;;;;5130936;27;20768;-78
2022/09/30 11:57:27;;;;;;;3.37;1.90;;;17.30;99.90;;;;;;5108049;27;21001;-78
2022/09/30 12:00:12;;;;;;;4.45;2.00;;;17.10;99.90;;;;;;5108600;27;20399;-78
2022/09/30 12:02:47;;;;;;;3.00;1.92;;;17.00;99.90;;;;;;5116893;27;20885;-78
2022/09/30 12:05:27;;;;;;;3.80;2.38;;;16.80;99.90;;;;;;5123735;27;20422;-77
2022/09/30 12:08:35;;;;;;;5.13;2.38;;;16.90;99.90;;;;;;5124517;27;20401;-78
2022/09/30 12:11:11;;;;;;;3.72;2.40;;;17.00;99.90;;;;;;5133608;27;20405;-79
2022/09/30 12:13:46;;;;;;;4.35;2.30;;;;;;;;;;5136549;27;20495;-78
2022/09/30 12:16:16;;;;;;;4.25;2.40;;;;;;;;;;5123149;27;20421;-79
2022/09/30 12:18:45;;;;;;;5.05;2.58;;;;;;;;;;5109341;27;20749;-79
2022/09/30 12:21:17;;;;;;;3.35;2.00;;;16.70;99.90;;;;;;5117620;27;20846;-80
2022/09/30 12:23:46;;;;;;;5.63;2.30;;;;;;;;;;5130851;27;20512;-78
2022/09/30 12:26:13;;;;;;;3.60;2.05;;;17.00;99.90;;;;;;5119837;27;20459;-77
2022/09/30 12:31:24;;;;;;;3.30;2.20;;;;;;;;;;5136495;27;20405;-77
2022/09/30 12:34:04;;;;;;;4.10;2.30;;;17.50;99.90;;;;;;5148486;27;20437;-77
2022/09/30 12:36:38;;;;;;;3.65;2.10;;;;;;;;;;5137256;27;20409;-76
2022/09/30 12:39:13;;;;;;;3.17;2.13;;;17.40;99.90;;;;;;5132944;27;20511;-76
2022/09/30 12:42:06;;;;;;;3.90;2.10;;;;;;;;;;5142144;27;20757;-77
2022/09/30 12:44:32;;;;;;;3.63;2.13;;;;;;;;;;5111235;27;21052;-77
2022/09/30 12:47:21;;;;;;;4.50;2.30;;;17.40;99.90;;;;;;5131700;27;20433;-80
2022/09/30 12:49:48;;;;;;;4.95;2.30;;;;;;;;;;5118668;27;20428;-78
2022/09/30 12:52:15;;;;;;;5.25;2.20;;;;;;;;;;5135988;27;20911;-80
2022/09/30 12:54:56;;;;;;;3.10;1.90;;;17.40;99.90;;;;;;5133647;27;20427;-82
2022/09/30 12:57:30;;;;;;;3.20;2.25;;;17.60;99.90;;;;;;5115476;27;20490;-82
2022/09/30 13:00:00;;;;;;;3.58;2.15;;;;;;;;;;5106770;27;20413;-80
2022/09/30 13:02:39;;;;;;;3.30;2.10;;;;;;;;;;5122712;27;20409;-81
2022/09/30 13:05:26;;;;;;;3.88;2.30;;;18.20;99.90;;;;;;5105114;27;20470;-80
2022/09/30 13:08:10;;;;;;;4.40;2.53;;;18.10;99.90;;;;;;5112522;27;20410;-78
2022/09/30 13:10:36;;;;;;;5.30;2.50;;;;;;;;;;5131502;27;20937;-78
2022/09/30 13:13:20;;;;;;;4.53;2.33;;;;;;;;;;5134097;27;20451;-78
2022/09/30 13:15:46;;;;;;;3.38;2.35;;;;;;;;;;5147158;27;20423;-78
2022/09/30 13:18:19;;;;;;;3.50;2.45;;;;;;;;;;5124494;27;20514;-77
2022/09/30 13:20:48;;;;;;;4.45;2.70;;;;;;;;;;5119703;27;20422;-77
2022/09/30 13:23:36;;;;;;;4.60;3.10;;;17.50;99.90;;;;;;5125422;27;20501;-78
2022/09/30 13:26:25;;;;;;;4.13;3.10;;;17.30;99.90;;;;;;5117405;27;20810;-79
2022/09/30 13:28:52;;;;;;;4.27;3.10;;;;;;;;;;5113768;27;20414;-78
2022/09/30 13:31:20;;;;;;;5.20;3.53;;;17.20;99.90;;;;;;5111969;27;20421;-76
2022/09/30 13:34:08;;;;;;;5.50;3.60;;;;;;;;;;5118478;27;20404;-77
2022/09/30 13:36:43;;;;;;;3.92;3.28;;;17.50;99.90;;;;;;5124451;27;20406;-77
2022/09/30 13:39:20;;;;;;;5.35;3.72;;;17.10;99.90;;;;;;5134118;27;20420;-77
2022/09/30 13:42:23;;;;;;;5.80;4.20;;;;;;;;;;5118334;27;20418;-77
2022/09/30 13:44:58;;;;;;;5.88;4.70;;;;;;;;;;5048869;28;20421;-76
2022/09/30 13:47:27;;;;;;;7.28;4.57;;;;;;;;;;5122482;27;20416;-76
2022/09/30 13:50:11;;;;;;;6.25;4.38;;;;;;;;;;5125330;27;20409;-76
2022/09/30 13:52:40;;;;;;;5.82;4.22;;;;;;;;;;5134769;27;20423;-78
2022/09/30 13:55:18;;;;;;;5.82;4.30;;;17.20;99.90;;;;;;5128659;27;20409;-77
2022/09/30 13:57:52;;;;;;;5.43;4.10;;;;;;;;;;5112058;27;20432;-79
2022/09/30 14:00:19;;;;;;;5.10;3.75;;;;;;;;;;5141552;27;20443;-79
2022/09/30 14:03:02;;;;;;;5.30;3.60;;;;;;;;;;5149059;27;20415;-78
2022/09/30 14:05:34;;;;;;;4.97;3.30;;;17.20;99.90;;;;;;5132762;27;20939;-78
2022/09/30 14:08:03;;;;;;;6.22;3.10;;;;;;;;;;5133832;27;20417;-77
2022/09/30 14:10:45;;;;;;;4.82;3.00;;;17.40;99.90;;;;;;5124798;27;20416;-79
2022/09/30 14:13:20;;;;;;;5.82;2.97;;;;;;;;;;5132772;27;20525;-78
2022/09/30 14:16:25;;;;;;;5.53;3.17;;;17.50;99.90;;;;;;5146529;27;20425;-78
2022/09/30 14:19:25;;;;;;;4.05;2.83;;;17.20;99.90;;;;;;5152965;27;20426;-78
2022/09/30 14:21:56;;;;;;;4.57;3.28;;;;;;;;;;5115938;27;20449;-78
2022/09/30 14:24:27;;;;;;;6.60;3.30;;;;;;;;;;5132137;27;20464;-78
2022/09/30 14:27:03;;;;;;;7.38;3.35;;;;;;;;;;5114960;27;20452;-78
2022/09/30 14:29:45;;;;;;;4.30;3.53;;;;;;;;;;5120472;27;20425;-79
2022/09/30 14:32:17;;;;;;;6.03;3.80;;;16.80;99.90;;;;;;5104849;27;20459;-78
2022/09/30 14:34:45;;;;;;;5.77;3.50;;;;;;;;;;5145990;27;20408;-78
2022/09/30 14:37:27;;;;;;;7.43;3.80;;;;;;;;;;5116562;27;20427;-79